Grand Princess — ZCBU5 — position and weather

sailwx.info

Track history (hours):
 
Tides and Currents Weather Stations Pressure Air Temp Water Temp Dewpoint Dewpoint Depression Visibility Wind Speed Wind Dir Waves Ship Positions

Grand Princess

Operator: Princess Cruises

Last reported at 2014-Oct-02 07:33 UTC. Time now 2014-Oct-02 08:23 UTC.
Position N 48°20' W 124°17'.

Length 289.5 m; beam 36 m; draft 8.5 m.

Type: Ship. MMSI: 310327000.

Date/timePositionNaut miles runAvg speedWind from/ knotsBaromVisibWave heightAir tempDewpointWater temp
2014-Oct-02 07:33N 48°20' W 124°17'2019.9
2014-Oct-02 06:33N 48°29' W 124°44'1716.8
2014-Oct-02 05:33N 48°19' W 125°05'2221.6
2014-Oct-02 04:33N 47°58' W 125°15'49720.2
2014-Oct-01 04:00N 39°42' W 124°42'4817.7 350 / 421017.210.8 3.016.512.917.0
2014-Oct-01 01:18N 38°56' W 124°24'1519.0
2014-Oct-01 00:31N 38°42' W 124°18'1919.4
2014-Sep-30 23:33N 38°26' W 124°08'2019.5
2014-Sep-30 22:33N 38°08' W 123°57'1919.3
2014-Sep-30 21:33N 37°50' W 123°46'1919.2
2014-Sep-30 20:33N 37°33' W 123°36'2019.7
2014-Sep-30 19:33N 37°15' W 123°25'2019.9
2014-Sep-30 18:33N 36°57' W 123°15'2120.6
2014-Sep-30 17:33N 36°39' W 123°03'2120.6
2014-Sep-30 16:33N 36°22' W 122°48'2120.6
2014-Sep-30 15:33N 36°06' W 122°32'2120.7
2014-Sep-30 14:33N 35°50' W 122°17'2120.9
2014-Sep-30 13:33N 35°34' W 122°00'2120.6
2014-Sep-30 12:33N 35°18' W 121°44'2121.1
2014-Sep-30 11:33N 35°01' W 121°28'2120.6
2014-Sep-30 10:33N 34°46' W 121°12'1919.1
2014-Sep-30 09:33N 34°31' W 120°57'1818.0
2014-Sep-30 08:33N 34°23' W 120°37'1818.4
2014-Sep-30 07:33N 34°18' W 120°16'1818.2
2014-Sep-30 06:33N 34°13' W 119°55'1818.0
2014-Sep-30 05:33N 34°09' W 119°34'1817.9
2014-Sep-30 04:33N 34°03' W 119°13'1424.9
2014-Sep-30 04:00N 33°54' W 119°00'712.6 350 / 241011.310.8 0.519.615.420.0
2014-Sep-30 03:24N 33°53' W 118°51'1416.5
2014-Sep-30 02:33N 33°46' W 118°37'1628.3
2014-Sep-30 02:00N 33°42' W 118°18'4 8.1 270 / 111010.710.8 0.519.716.621.0
2014-Sep-30 01:33N 33°39' W 118°21'6 6.5
2014-Sep-30 00:34N 33°45' W 118°17'0 0.1
2014-Sep-29 23:32N 33°45' W 118°17'0 0.0
2014-Sep-29 22:29N 33°45' W 118°17'0 0.0
2014-Sep-29 21:32N 33°45' W 118°17'0 0.0
2014-Sep-29 20:31N 33°45' W 118°17'0 0.0
2014-Sep-29 19:31N 33°45' W 118°17'0 0.0
2014-Sep-29 18:30N 33°45' W 118°17'0 0.0
2014-Sep-29 17:30N 33°45' W 118°17'0 0.0
2014-Sep-29 16:29N 33°45' W 118°17'0 0.0
2014-Sep-29 15:23N 33°45' W 118°17'0 0.0
2014-Sep-29 14:29N 33°45' W 118°17'0 0.0
2014-Sep-29 13:33N 33°45' W 118°17'3 2.9
2014-Sep-29 12:33N 33°42' W 118°15'10 9.2
2014-Sep-29 11:31N 33°34' W 118°09'2812.0
2014-Sep-29 09:11N 33°10' W 117°52'712.0
2014-Sep-29 08:33N 33°05' W 117°45'1111.3
2014-Sep-29 07:33N 32°57' W 117°36'8 8.5
2014-Sep-29 06:33N 32°52' W 117°44'10 9.5
2014-Sep-29 05:33N 32°49' W 117°54'8 8.3
2014-Sep-29 04:33N 32°48' W 118°04'10 9.7
2014-Sep-29 03:33N 32°57' W 118°06'11 9.2
2014-Sep-29 02:20N 33°08' W 118°09'1113.6
2014-Sep-29 01:33N 33°18' W 118°13'6 0.6
2014-Sep-28 16:31N 33°21' W 118°19'9 2.3
2014-Sep-28 12:32N 33°16' W 118°09'1312.5
2014-Sep-28 11:32N 33°04' W 118°06'7 7.1
2014-Sep-28 10:33N 33°03' W 117°58'9112.6
2014-Sep-28 03:23N 34°03' W 119°19'1315.9
2014-Sep-28 02:34N 34°07' W 119°34'1515.0
2014-Sep-28 01:33N 34°21' W 119°41'3 2.6
2014-Sep-28 00:32N 34°24' W 119°41'0 0.1
2014-Sep-27 23:32N 34°24' W 119°41'0 0.0
2014-Sep-27 22:31N 34°24' W 119°41'0 0.0
2014-Sep-27 21:31N 34°24' W 119°41'0 0.0
2014-Sep-27 20:31N 34°24' W 119°41'0 0.0
2014-Sep-27 19:33N 34°24' W 119°41'0 0.0
2014-Sep-27 18:33N 34°24' W 119°41'0 0.1
2014-Sep-27 17:14N 34°24' W 119°41'0 0.0
2014-Sep-27 16:05N 34°24' W 119°41'0 0.1
2014-Sep-27 15:33N 34°24' W 119°41'9 9.0
2014-Sep-27 14:33N 34°16' W 119°46'1110.8
2014-Sep-27 13:33N 34°12' W 119°59'1312.7
2014-Sep-27 12:33N 34°15' W 120°13'1513.6
2014-Sep-27 11:27N 34°19' W 120°31'8416.1
2014-Sep-27 06:14N 35°20' W 121°42'1319.1
2014-Sep-27 05:32N 35°31' W 121°51'1919.1
2014-Sep-27 04:33N 35°46' W 122°05'1919.4
2014-Sep-27 03:33N 36°02' W 122°18'2019.8
2014-Sep-27 02:33N 36°19' W 122°31'712.3
2014-Sep-27 02:00N 36°12' W 122°30'2658.9 330 / 211014.610.8 0.517.514.919.0
2014-Sep-27 01:33N 36°37' W 122°39'1818.3
2014-Sep-27 00:33N 36°53' W 122°48'1918.6
2014-Sep-26 23:32N 37°12' W 122°45'1616.3
2014-Sep-26 22:31N 37°29' W 122°44'1515.3
2014-Sep-26 21:33N 37°43' W 122°41'1212.2
2014-Sep-26 20:33N 37°49' W 122°27'3 2.8
2014-Sep-26 19:33N 37°48' W 122°24'0 0.0
2014-Sep-26 18:32N 37°48' W 122°24'0 0.0
2014-Sep-26 17:32N 37°48' W 122°24'0 0.0
2014-Sep-26 16:31N 37°48' W 122°24'0 0.0
2014-Sep-26 15:31N 37°48' W 122°24'0 0.0
2014-Sep-26 14:31N 37°48' W 122°24'0 0.0
2014-Sep-26 13:33N 37°48' W 122°24'0 0.0
2014-Sep-26 12:33N 37°48' W 122°24'0 0.0
2014-Sep-26 11:32N 37°48' W 122°24'0 0.0
2014-Sep-26 10:32N 37°48' W 122°24'0 0.0
2014-Sep-26 09:31N 37°48' W 122°24'0 0.0
2014-Sep-26 08:31N 37°48' W 122°24'0 0.0
2014-Sep-26 07:33N 37°48' W 122°24'0 0.0
2014-Sep-26 06:33N 37°48' W 122°24'0 0.0
2014-Sep-26 05:33N 37°48' W 122°24'0 0.0
2014-Sep-26 04:32N 37°48' W 122°24'0 0.0
2014-Sep-26 03:32N 37°48' W 122°24'0 0.0
2014-Sep-26 02:31N 37°48' W 122°24'0 0.0
2014-Sep-26 01:31N 37°48' W 122°24'0 0.0
2014-Sep-26 00:33N 37°48' W 122°24'0 0.0
2014-Sep-25 23:33N 37°48' W 122°24'0 0.0
2014-Sep-25 22:33N 37°48' W 122°24'0 0.0
2014-Sep-25 21:32N 37°48' W 122°24'0 0.0
2014-Sep-25 20:32N 37°48' W 122°24'0 0.0
2014-Sep-25 19:31N 37°48' W 122°24'0 0.0
2014-Sep-25 18:32N 37°48' W 122°24'2 2.5
2014-Sep-25 17:33N 37°49' W 122°27'1313.1
2014-Sep-25 16:33N 37°46' W 122°43'10 9.9
2014-Sep-25 15:33N 37°50' W 122°55'62110.0
2014-Sep-25 15:00N 36°48' W 122°54'69159.6 210 / 51014.510.8 0.516.514.418.0
2014-Sep-25 14:33N 37°56' W 123°08'1211.8
2014-Sep-25 13:33N 38°05' W 123°19'1211.8
2014-Sep-25 12:33N 38°11' W 123°32'1313.3
2014-Sep-25 11:34N 38°18' W 123°46'1716.6
2014-Sep-25 10:33N 38°29' W 124°02'31818.1
2014-Sep-24 17:00N 43°42' W 125°18'4214.0 180 / 351009.1 5.4 2.517.916.218.0
2014-Sep-24 14:00N 44°24' W 125°18'21718.6 190 / 351006.7 5.4 2.517.615.617.0
2014-Sep-24 02:19N 48°01' W 125°20'1519.6
2014-Sep-24 01:34N 48°15' W 125°13'1918.5
2014-Sep-24 00:33N 48°31' W 124°57'2321.2
2014-Sep-23 23:29N 48°25' W 124°23'1921.1
2014-Sep-23 22:33N 48°18' W 123°57'1919.1
2014-Sep-23 21:34N 48°18' W 123°28'7 7.4
2014-Sep-23 20:33N 48°25' W 123°24'0 0.0
2014-Sep-23 19:32N 48°25' W 123°24'0 0.0
2014-Sep-23 18:26N 48°25' W 123°24'0 0.0
2014-Sep-23 17:32N 48°25' W 123°24'0 0.0
2014-Sep-23 16:32N 48°25' W 123°24'0 0.0
2014-Sep-23 15:31N 48°25' W 123°24'0 0.0
2014-Sep-23 14:31N 48°25' W 123°24'0 0.3
2014-Sep-23 13:33N 48°25' W 123°24'7 6.6
2014-Sep-23 12:33N 48°24' W 123°14'1110.7
2014-Sep-23 11:33N 48°35' W 123°14'10 9.7
2014-Sep-23 10:33N 48°44' W 123°09'8 8.1
2014-Sep-23 09:33N 48°52' W 123°04'7 6.8
2014-Sep-23 08:33N 48°56' W 123°12'7 6.8
2014-Sep-23 07:33N 49°01' W 123°20'7 7.0
2014-Sep-23 06:33N 49°06' W 123°27'7 6.9
2014-Sep-23 05:33N 49°12' W 123°31'7 6.7
2014-Sep-23 04:33N 49°15' W 123°40'7 6.9
2014-Sep-23 03:33N 49°18' W 123°50'6 5.8
2014-Sep-23 02:33N 49°19' W 123°41'7 7.5
2014-Sep-23 01:33N 49°18' W 123°30'8 8.3
2014-Sep-23 00:33N 49°19' W 123°17'7 7.3
2014-Sep-22 23:34N 49°17' W 123°06'0 0.0
2014-Sep-22 22:34N 49°17' W 123°06'0 0.0
2014-Sep-22 21:29N 49°17' W 123°06'0 0.0
2014-Sep-22 20:32N 49°17' W 123°06'0 0.0
2014-Sep-22 19:33N 49°17' W 123°06'0 0.0
2014-Sep-22 18:33N 49°17' W 123°06'0 0.0
2014-Sep-22 17:33N 49°17' W 123°06'0 0.0
2014-Sep-22 16:32N 49°17' W 123°06'0 0.0
2014-Sep-22 15:32N 49°17' W 123°06'0 0.0
2014-Sep-22 14:31N 49°17' W 123°06'0 0.0
2014-Sep-22 13:31N 49°17' W 123°06'0 0.4
2014-Sep-22 12:33N 49°18' W 123°06'8 7.9
2014-Sep-22 11:33N 49°16' W 123°18'1212.0
2014-Sep-22 10:33N 49°05' W 123°21'1313.1
2014-Sep-22 09:33N 48°55' W 123°07'1211.6
2014-Sep-22 08:33N 48°44' W 123°08'1212.1
2014-Sep-22 07:33N 48°32' W 123°11'  
Track history (hours):
 
Tides and Currents Weather Stations Pressure Air Temp Water Temp Dewpoint Dewpoint Depression Visibility Wind Speed Wind Dir Waves Ship Positions

Grand Princess

Operator: Princess Cruises

Last reported at 2014-Oct-02 07:33 UTC. Time now 2014-Oct-02 08:23 UTC.
Position N 48°20' W 124°17'.

Length 289.5 m; beam 36 m; draft 8.5 m.

Type: Ship. MMSI: 310327000.

Date/timePositionNaut miles runAvg speedWind from/ knotsBaromVisibWave heightAir tempDewpointWater temp
2014-Oct-02 07:33N 48°20' W 124°17'2019.9
2014-Oct-02 06:33N 48°29' W 124°44'1716.8
2014-Oct-02 05:33N 48°19' W 125°05'2221.6
2014-Oct-02 04:33N 47°58' W 125°15'49720.2
2014-Oct-01 04:00N 39°42' W 124°42'4817.7 350 / 421017.210.8 3.016.512.917.0
2014-Oct-01 01:18N 38°56' W 124°24'1519.0
2014-Oct-01 00:31N 38°42' W 124°18'1919.4
2014-Sep-30 23:33N 38°26' W 124°08'2019.5
2014-Sep-30 22:33N 38°08' W 123°57'1919.3
2014-Sep-30 21:33N 37°50' W 123°46'1919.2
2014-Sep-30 20:33N 37°33' W 123°36'2019.7
2014-Sep-30 19:33N 37°15' W 123°25'2019.9
2014-Sep-30 18:33N 36°57' W 123°15'2120.6
2014-Sep-30 17:33N 36°39' W 123°03'2120.6
2014-Sep-30 16:33N 36°22' W 122°48'2120.6
2014-Sep-30 15:33N 36°06' W 122°32'2120.7
2014-Sep-30 14:33N 35°50' W 122°17'2120.9
2014-Sep-30 13:33N 35°34' W 122°00'2120.6
2014-Sep-30 12:33N 35°18' W 121°44'2121.1
2014-Sep-30 11:33N 35°01' W 121°28'2120.6
2014-Sep-30 10:33N 34°46' W 121°12'1919.1
2014-Sep-30 09:33N 34°31' W 120°57'1818.0
2014-Sep-30 08:33N 34°23' W 120°37'1818.4
2014-Sep-30 07:33N 34°18' W 120°16'1818.2
2014-Sep-30 06:33N 34°13' W 119°55'1818.0
2014-Sep-30 05:33N 34°09' W 119°34'1817.9
2014-Sep-30 04:33N 34°03' W 119°13'1424.9
2014-Sep-30 04:00N 33°54' W 119°00'712.6 350 / 241011.310.8 0.519.615.420.0
2014-Sep-30 03:24N 33°53' W 118°51'1416.5
2014-Sep-30 02:33N 33°46' W 118°37'1628.3
2014-Sep-30 02:00N 33°42' W 118°18'4 8.1 270 / 111010.710.8 0.519.716.621.0
2014-Sep-30 01:33N 33°39' W 118°21'6 6.5
2014-Sep-30 00:34N 33°45' W 118°17'0 0.1
2014-Sep-29 23:32N 33°45' W 118°17'0 0.0
2014-Sep-29 22:29N 33°45' W 118°17'0 0.0
2014-Sep-29 21:32N 33°45' W 118°17'0 0.0
2014-Sep-29 20:31N 33°45' W 118°17'0 0.0
2014-Sep-29 19:31N 33°45' W 118°17'0 0.0
2014-Sep-29 18:30N 33°45' W 118°17'0 0.0
2014-Sep-29 17:30N 33°45' W 118°17'0 0.0
2014-Sep-29 16:29N 33°45' W 118°17'0 0.0
2014-Sep-29 15:23N 33°45' W 118°17'0 0.0
2014-Sep-29 14:29N 33°45' W 118°17'0 0.0
2014-Sep-29 13:33N 33°45' W 118°17'3 2.9
2014-Sep-29 12:33N 33°42' W 118°15'10 9.2
2014-Sep-29 11:31N 33°34' W 118°09'2812.0
2014-Sep-29 09:11N 33°10' W 117°52'712.0
2014-Sep-29 08:33N 33°05' W 117°45'1111.3
2014-Sep-29 07:33N 32°57' W 117°36'8 8.5
2014-Sep-29 06:33N 32°52' W 117°44'10 9.5
2014-Sep-29 05:33N 32°49' W 117°54'8 8.3
2014-Sep-29 04:33N 32°48' W 118°04'10 9.7
2014-Sep-29 03:33N 32°57' W 118°06'11 9.2
2014-Sep-29 02:20N 33°08' W 118°09'1113.6
2014-Sep-29 01:33N 33°18' W 118°13'6 0.6
2014-Sep-28 16:31N 33°21' W 118°19'9 2.3
2014-Sep-28 12:32N 33°16' W 118°09'1312.5
2014-Sep-28 11:32N 33°04' W 118°06'7 7.1
2014-Sep-28 10:33N 33°03' W 117°58'9112.6
2014-Sep-28 03:23N 34°03' W 119°19'1315.9
2014-Sep-28 02:34N 34°07' W 119°34'1515.0
2014-Sep-28 01:33N 34°21' W 119°41'3 2.6
2014-Sep-28 00:32N 34°24' W 119°41'0 0.1
2014-Sep-27 23:32N 34°24' W 119°41'0 0.0
2014-Sep-27 22:31N 34°24' W 119°41'0 0.0
2014-Sep-27 21:31N 34°24' W 119°41'0 0.0
2014-Sep-27 20:31N 34°24' W 119°41'0 0.0
2014-Sep-27 19:33N 34°24' W 119°41'0 0.0
2014-Sep-27 18:33N 34°24' W 119°41'0 0.1
2014-Sep-27 17:14N 34°24' W 119°41'0 0.0
2014-Sep-27 16:05N 34°24' W 119°41'0 0.1
2014-Sep-27 15:33N 34°24' W 119°41'9 9.0
2014-Sep-27 14:33N 34°16' W 119°46'1110.8
2014-Sep-27 13:33N 34°12' W 119°59'1312.7
2014-Sep-27 12:33N 34°15' W 120°13'1513.6
2014-Sep-27 11:27N 34°19' W 120°31'8416.1
2014-Sep-27 06:14N 35°20' W 121°42'1319.1
2014-Sep-27 05:32N 35°31' W 121°51'1919.1
2014-Sep-27 04:33N 35°46' W 122°05'1919.4
2014-Sep-27 03:33N 36°02' W 122°18'2019.8
2014-Sep-27 02:33N 36°19' W 122°31'712.3
2014-Sep-27 02:00N 36°12' W 122°30'2658.9 330 / 211014.610.8 0.517.514.919.0
2014-Sep-27 01:33N 36°37' W 122°39'1818.3
2014-Sep-27 00:33N 36°53' W 122°48'1918.6
2014-Sep-26 23:32N 37°12' W 122°45'1616.3
2014-Sep-26 22:31N 37°29' W 122°44'1515.3
2014-Sep-26 21:33N 37°43' W 122°41'1212.2
2014-Sep-26 20:33N 37°49' W 122°27'3 2.8
2014-Sep-26 19:33N 37°48' W 122°24'0 0.0
2014-Sep-26 18:32N 37°48' W 122°24'0 0.0
2014-Sep-26 17:32N 37°48' W 122°24'0 0.0
2014-Sep-26 16:31N 37°48' W 122°24'0 0.0
2014-Sep-26 15:31N 37°48' W 122°24'0 0.0
2014-Sep-26 14:31N 37°48' W 122°24'0 0.0
2014-Sep-26 13:33N 37°48' W 122°24'0 0.0
2014-Sep-26 12:33N 37°48' W 122°24'0 0.0
2014-Sep-26 11:32N 37°48' W 122°24'0 0.0
2014-Sep-26 10:32N 37°48' W 122°24'0 0.0
2014-Sep-26 09:31N 37°48' W 122°24'0 0.0
2014-Sep-26 08:31N 37°48' W 122°24'0 0.0
2014-Sep-26 07:33N 37°48' W 122°24'0 0.0
2014-Sep-26 06:33N 37°48' W 122°24'0 0.0
2014-Sep-26 05:33N 37°48' W 122°24'0 0.0
2014-Sep-26 04:32N 37°48' W 122°24'0 0.0
2014-Sep-26 03:32N 37°48' W 122°24'0 0.0
2014-Sep-26 02:31N 37°48' W 122°24'0 0.0
2014-Sep-26 01:31N 37°48' W 122°24'0 0.0
2014-Sep-26 00:33N 37°48' W 122°24'0 0.0
2014-Sep-25 23:33N 37°48' W 122°24'0 0.0
2014-Sep-25 22:33N 37°48' W 122°24'0 0.0
2014-Sep-25 21:32N 37°48' W 122°24'0 0.0
2014-Sep-25 20:32N 37°48' W 122°24'0 0.0
2014-Sep-25 19:31N 37°48' W 122°24'0 0.0
2014-Sep-25 18:32N 37°48' W 122°24'2 2.5
2014-Sep-25 17:33N 37°49' W 122°27'1313.1
2014-Sep-25 16:33N 37°46' W 122°43'10 9.9
2014-Sep-25 15:33N 37°50' W 122°55'62110.0
2014-Sep-25 15:00N 36°48' W 122°54'69159.6 210 / 51014.510.8 0.516.514.418.0
2014-Sep-25 14:33N 37°56' W 123°08'1211.8
2014-Sep-25 13:33N 38°05' W 123°19'1211.8
2014-Sep-25 12:33N 38°11' W 123°32'1313.3
2014-Sep-25 11:34N 38°18' W 123°46'1716.6
2014-Sep-25 10:33N 38°29' W 124°02'31818.1
2014-Sep-24 17:00N 43°42' W 125°18'4214.0 180 / 351009.1 5.4 2.517.916.218.0
2014-Sep-24 14:00N 44°24' W 125°18'21718.6 190 / 351006.7 5.4 2.517.615.617.0
2014-Sep-24 02:19N 48°01' W 125°20'1519.6
2014-Sep-24 01:34N 48°15' W 125°13'1918.5
2014-Sep-24 00:33N 48°31' W 124°57'2321.2
2014-Sep-23 23:29N 48°25' W 124°23'1921.1
2014-Sep-23 22:33N 48°18' W 123°57'1919.1
2014-Sep-23 21:34N 48°18' W 123°28'7 7.4
2014-Sep-23 20:33N 48°25' W 123°24'0 0.0
2014-Sep-23 19:32N 48°25' W 123°24'0 0.0
2014-Sep-23 18:26N 48°25' W 123°24'0 0.0
2014-Sep-23 17:32N 48°25' W 123°24'0 0.0
2014-Sep-23 16:32N 48°25' W 123°24'0 0.0
2014-Sep-23 15:31N 48°25' W 123°24'0 0.0
2014-Sep-23 14:31N 48°25' W 123°24'0 0.3
2014-Sep-23 13:33N 48°25' W 123°24'7 6.6
2014-Sep-23 12:33N 48°24' W 123°14'1110.7
2014-Sep-23 11:33N 48°35' W 123°14'10 9.7
2014-Sep-23 10:33N 48°44' W 123°09'8 8.1
2014-Sep-23 09:33N 48°52' W 123°04'7 6.8
2014-Sep-23 08:33N 48°56' W 123°12'7 6.8
2014-Sep-23 07:33N 49°01' W 123°20'7 7.0
2014-Sep-23 06:33N 49°06' W 123°27'7 6.9
2014-Sep-23 05:33N 49°12' W 123°31'7 6.7
2014-Sep-23 04:33N 49°15' W 123°40'7 6.9
2014-Sep-23 03:33N 49°18' W 123°50'6 5.8
2014-Sep-23 02:33N 49°19' W 123°41'7 7.5
2014-Sep-23 01:33N 49°18' W 123°30'8 8.3
2014-Sep-23 00:33N 49°19' W 123°17'7 7.3
2014-Sep-22 23:34N 49°17' W 123°06'0 0.0
2014-Sep-22 22:34N 49°17' W 123°06'0 0.0
2014-Sep-22 21:29N 49°17' W 123°06'0 0.0
2014-Sep-22 20:32N 49°17' W 123°06'0 0.0
2014-Sep-22 19:33N 49°17' W 123°06'0 0.0
2014-Sep-22 18:33N 49°17' W 123°06'0 0.0
2014-Sep-22 17:33N 49°17' W 123°06'0 0.0
2014-Sep-22 16:32N 49°17' W 123°06'0 0.0
2014-Sep-22 15:32N 49°17' W 123°06'0 0.0
2014-Sep-22 14:31N 49°17' W 123°06'0 0.0
2014-Sep-22 13:31N 49°17' W 123°06'0 0.4
2014-Sep-22 12:33N 49°18' W 123°06'8 7.9
2014-Sep-22 11:33N 49°16' W 123°18'1212.0
2014-Sep-22 10:33N 49°05' W 123°21'1313.1
2014-Sep-22 09:33N 48°55' W 123°07'1211.6
2014-Sep-22 08:33N 48°44' W 123°08'1212.1
2014-Sep-22 07:33N 48°32' W 123°11'  

Dump ship's entire track history